Time;durP1;ratioP1;P1;durP2;ratioP2;P2;SDS_P1;SDS_P2;PMS_P1;PMS_P2;Temp;Humidity;BMP_temperature;BMP_pressure;BME280_temperature;BME280_humidity;BME280_pressure;Samples;Min_cycle;Max_cycle;Signal;HPM_P1;HPM_P2
2021/11/15 00:00:55;;;;;;;48.70;18.10;;;;;;;5.79;64.67;100462.05;24396;1357;3027255;-74
2021/11/15 00:03:25;;;;;;;43.80;18.10;;;;;;;5.76;64.21;100462.30;24474;1357;3053934;-72
2021/11/15 00:05:56;;;;;;;45.30;18.20;;;;;;;5.65;64.32;100464.31;24278;1357;3028238;-70
2021/11/15 00:08:26;;;;;;;46.90;18.50;;;;;;;5.54;64.51;100465.96;24432;1360;3026480;-65
2021/11/15 00:10:55;;;;;;;38.00;16.60;;;;;;;5.42;64.49;100471.80;24478;1357;3027351;-76
2021/11/15 00:13:24;;;;;;;40.80;15.30;;;;;;;5.31;64.54;100472.75;24419;1357;3026444;-72
2021/11/15 00:16:10;;;;;;;38.00;15.10;;;;;;;5.22;64.60;100469.99;24447;1362;3052345;-72
2021/11/15 00:18:39;;;;;;;32.00;14.70;;;;;;;5.14;64.80;100463.39;24451;1363;3028516;-72
2021/11/15 00:21:08;;;;;;;30.70;15.10;;;;;;;5.11;64.65;100464.87;24421;1363;3056998;-74
2021/11/15 00:23:42;;;;;;;39.30;14.50;;;;;;;5.05;65.01;100468.64;24456;1356;3051843;-76
2021/11/15 00:26:11;;;;;;;49.10;16.50;;;;;;;4.98;65.06;100466.35;24447;1357;3027005;-75
2021/11/15 00:28:40;;;;;;;35.50;13.60;;;;;;;4.95;65.14;100459.48;24425;1362;3055498;-71
2021/11/15 00:31:09;;;;;;;35.70;14.60;;;;;;;4.96;65.15;100466.05;24399;1360;3026820;-74
2021/11/15 00:33:41;;;;;;;46.20;16.20;;;;;;;4.93;65.40;100454.65;24453;1360;3053386;-71
2021/11/15 00:36:10;;;;;;;42.60;15.90;;;;;;;4.90;65.40;100452.83;24390;1361;3026790;-73
2021/11/15 00:38:39;;;;;;;35.00;14.50;;;;;;;4.88;65.31;100455.10;24439;1355;3055410;-72
2021/11/15 00:41:10;;;;;;;41.60;16.40;;;;;;;4.85;65.51;100448.92;24426;1355;3026446;-72
2021/11/15 00:43:39;;;;;;;38.70;17.10;;;;;;;4.81;65.55;100447.44;24492;1356;3026863;-69
2021/11/15 00:46:09;;;;;;;42.80;18.20;;;;;;;4.77;65.77;100441.46;24574;1360;3054653;-76
2021/11/15 00:48:38;;;;;;;49.10;17.40;;;;;;;4.73;65.97;100445.54;24464;1354;3027451;-73
2021/11/15 00:51:07;;;;;;;37.20;16.00;;;;;;;4.74;65.94;100450.71;24455;1361;3047578;-77
2021/11/15 00:53:37;;;;;;;45.70;18.80;;;;;;;4.76;65.83;100452.41;24491;1356;3026946;-78
2021/11/15 00:56:06;;;;;;;43.10;20.00;;;;;;;4.68;66.24;100452.40;24461;1361;3026588;-70
2021/11/15 00:58:36;;;;;;;48.10;20.40;;;;;;;4.50;66.82;100448.25;24448;1355;3048325;-68
2021/11/15 01:01:05;;;;;;;47.00;18.20;;;;;;;4.44;67.19;100446.11;24458;1361;3026533;-72
2021/11/15 01:03:34;;;;;;;38.90;16.70;;;;;;;4.30;67.54;100449.52;24440;1357;3068275;-75
2021/11/15 01:06:03;;;;;;;57.00;24.90;;;;;;;4.17;68.11;100449.59;24440;1357;3029284;-72
2021/11/15 01:08:32;;;;;;;65.60;28.60;;;;;;;4.02;68.68;100449.50;24485;1357;3051625;-70
2021/11/15 01:11:00;;;;;;;59.20;26.40;;;;;;;3.85;69.18;100445.64;24439;1357;3026708;-70
2021/11/15 01:13:29;;;;;;;84.00;35.10;;;;;;;3.68;69.88;100434.66;24449;1360;3052642;-69
2021/11/15 01:15:59;;;;;;;115.60;54.10;;;;;;;3.66;69.91;100433.82;24476;1355;3026534;-67
2021/11/15 01:18:28;;;;;;;76.60;27.90;;;;;;;4.15;69.08;100428.10;24486;1357;3049203;-74
2021/11/15 01:20:57;;;;;;;49.50;21.30;;;;;;;4.62;67.16;100423.20;24503;1353;3029046;-76
2021/11/15 01:23:25;;;;;;;54.40;22.10;;;;;;;4.81;66.62;100415.84;24507;1357;3054588;-72
2021/11/15 01:25:54;;;;;;;52.70;22.20;;;;;;;4.77;66.52;100411.95;24476;1357;3028365;-71
2021/11/15 01:29:11;;;;;;;59.90;24.10;;;;;;;4.68;66.71;100408.84;30920;1352;3028649;-71
2021/11/15 01:31:40;;;;;;;54.90;24.60;;;;;;;4.77;66.33;100411.95;24533;1358;3026616;-76
2021/11/15 01:34:09;;;;;;;47.30;20.20;;;;;;;4.93;65.74;100404.65;24594;1351;3026232;-76
2021/11/15 01:36:38;;;;;;;38.40;17.00;;;;;;;4.68;66.33;100405.39;24579;1359;3051666;-71
2021/11/15 01:39:07;;;;;;;53.50;22.90;;;;;;;4.50;67.06;100419.27;24538;1352;3027266;-68
2021/11/15 01:41:36;;;;;;;75.50;32.50;;;;;;;4.20;67.81;100418.13;24450;1355;3164676;-71
2021/11/15 01:44:04;;;;;;;66.70;33.60;;;;;;;3.98;68.86;100426.02;24556;1351;3026564;-68
2021/11/15 01:46:33;;;;;;;84.90;41.60;;;;;;;3.74;69.53;100423.81;24609;1352;3048963;-69
2021/11/15 01:49:02;;;;;;;83.70;40.70;;;;;;;3.54;70.65;100424.16;24558;1351;3028275;-72
2021/11/15 01:51:32;;;;;;;108.50;50.90;;;;;;;3.39;71.60;100431.84;24771;1354;3052385;-76
2021/11/15 01:54:02;;;;;;;85.30;39.70;;;;;;;3.24;72.43;100437.27;24672;1351;3026518;-71
2021/11/15 01:56:31;;;;;;;94.70;42.30;;;;;;;3.60;71.86;100430.97;24517;1355;3026419;-73
2021/11/15 01:59:02;;;;;;;83.90;39.50;;;;;;;4.04;70.10;100430.91;24582;1355;3026134;-73
2021/11/15 02:01:31;;;;;;;85.20;38.90;;;;;;;3.99;70.26;100436.38;24563;1351;3048883;-69
2021/11/15 02:04:00;;;;;;;85.60;40.50;;;;;;;4.09;70.34;100433.95;24557;1351;3027362;-71
2021/11/15 02:06:29;;;;;;;104.10;44.40;;;;;;;4.05;69.81;100429.16;24848;1351;3026895;-72
2021/11/15 02:08:58;;;;;;;83.80;38.30;;;;;;;3.69;70.78;100433.77;24698;1348;3050439;-70
2021/11/15 02:11:27;;;;;;;85.90;40.60;;;;;;;3.38;72.16;100442.25;24541;1351;3029363;-73
2021/11/15 02:13:56;;;;;;;93.40;45.80;;;;;;;3.02;73.40;100451.77;24581;1351;3054923;-71
2021/11/15 02:16:25;;;;;;;93.60;42.60;;;;;;;2.73;73.88;100454.23;24590;1353;3026778;-74
2021/11/15 02:18:55;;;;;;;84.70;41.10;;;;;;;2.54;74.62;100456.36;24561;1357;3051777;-68
2021/11/15 02:21:24;;;;;;;72.60;30.80;;;;;;;2.49;74.99;100456.77;24547;1352;3026176;-73
2021/11/15 02:23:54;;;;;;;82.10;33.70;;;;;;;3.11;74.00;100454.07;24529;1354;3056027;-79
2021/11/15 02:26:23;;;;;;;79.40;36.70;;;;;;;3.87;71.57;100449.95;24547;1351;3028718;-74
2021/11/15 02:28:52;;;;;;;82.10;36.80;;;;;;;4.06;69.79;100447.89;24596;1354;3051937;-72
2021/11/15 02:31:23;;;;;;;89.70;38.40;;;;;;;4.00;69.40;100449.38;24681;1354;3026429;-76
2021/11/15 02:33:54;;;;;;;89.60;39.90;;;;;;;3.83;69.38;100448.61;24581;1352;3026581;-75
2021/11/15 02:36:24;;;;;;;94.40;41.70;;;;;;;3.74;69.73;100445.81;24568;1351;3026572;-67
2021/11/15 02:38:53;;;;;;;83.10;39.30;;;;;;;3.59;69.83;100447.11;24738;1351;3026714;-69
2021/11/15 02:41:24;;;;;;;86.50;38.90;;;;;;;3.48;70.34;100448.16;24717;1351;3029675;-76
2021/11/15 02:43:53;;;;;;;95.40;39.10;;;;;;;3.36;70.91;100444.86;24739;1345;3027336;-73
2021/11/15 02:46:21;;;;;;;99.00;42.70;;;;;;;3.28;70.87;100439.98;24687;1351;3028385;-67
2021/11/15 02:48:50;;;;;;;94.00;40.70;;;;;;;3.21;71.22;100444.76;24674;1351;3070535;-66
2021/11/15 02:51:20;;;;;;;89.50;40.80;;;;;;;3.13;71.57;100441.75;24717;1349;3026609;-70
2021/11/15 02:53:49;;;;;;;92.10;40.20;;;;;;;3.09;71.57;100438.17;24730;1351;3049571;-72
2021/11/15 02:56:18;;;;;;;78.10;33.80;;;;;;;2.99;72.73;100436.41;24680;1351;3027022;-68
2021/11/15 02:58:48;;;;;;;87.80;37.80;;;;;;;3.59;71.15;100437.41;24707;1351;3055476;-68
2021/11/15 03:01:18;;;;;;;83.60;36.50;;;;;;;4.26;69.56;100437.42;24725;1352;3026570;-70
2021/11/15 03:03:47;;;;;;;83.40;38.90;;;;;;;4.37;68.22;100439.31;24702;1351;3049420;-72
2021/11/15 03:06:16;;;;;;;87.70;37.90;;;;;;;4.18;68.35;100443.66;24687;1351;3025922;-67
2021/11/15 03:08:45;;;;;;;99.40;43.00;;;;;;;3.96;68.91;100441.45;24707;1351;3055581;-69
2021/11/15 03:11:14;;;;;;;87.20;39.40;;;;;;;3.79;69.20;100440.20;24666;1354;3026597;-68
2021/11/15 03:13:45;;;;;;;92.10;42.50;;;;;;;3.54;69.94;100445.80;24592;1351;3026639;-69
2021/11/15 03:16:14;;;;;;;87.30;38.90;;;;;;;3.37;70.26;100444.52;24540;1351;3058492;-69
2021/11/15 03:18:43;;;;;;;85.40;42.60;;;;;;;3.17;70.94;100447.74;24552;1354;3026376;-77
2021/11/15 03:21:20;;;;;;;87.00;42.30;;;;;;;2.98;71.90;100448.55;24540;1352;3026243;-73
2021/11/15 03:23:51;;;;;;;85.60;40.30;;;;;;;2.74;72.62;100447.47;24662;1348;3055859;-70
2021/11/15 03:26:20;;;;;;;83.00;36.10;;;;;;;2.52;73.45;100451.03;24580;1357;3026538;-72
2021/11/15 03:28:50;;;;;;;76.10;33.10;;;;;;;2.46;73.96;100451.45;24532;1351;3026787;-72
2021/11/15 03:31:40;;;;;;;80.00;34.90;;;;;;;2.94;72.74;100456.73;24553;1354;3027225;-75
2021/11/15 03:34:11;;;;;;;79.20;33.70;;;;;;;3.53;70.61;100454.48;24571;1351;3070956;-70
2021/11/15 03:36:41;;;;;;;78.10;36.30;;;;;;;3.36;70.72;100456.66;24527;1351;3026842;-74
2021/11/15 03:39:11;;;;;;;82.00;36.60;;;;;;;3.16;71.23;100458.16;24541;1351;3026446;-74
2021/11/15 03:41:41;;;;;;;81.30;39.30;;;;;;;2.89;72.15;100457.30;24547;1354;3027519;-76
2021/11/15 03:44:10;;;;;;;83.50;38.70;;;;;;;2.61;73.16;100458.88;24522;1349;3026911;-75
2021/11/15 03:46:40;;;;;;;89.00;38.90;;;;;;;2.43;73.83;100461.16;24550;1352;3027353;-69
2021/11/15 03:49:15;;;;;;;89.60;40.20;;;;;;;2.26;74.50;100461.52;24555;1354;3052633;-75
2021/11/15 03:51:44;;;;;;;87.30;39.50;;;;;;;2.17;75.28;100457.98;24583;1355;3026474;-72
2021/11/15 03:54:13;;;;;;;101.50;43.10;;;;;;;2.17;75.22;100458.31;24544;1351;3029749;-71
2021/11/15 03:56:42;;;;;;;74.80;32.30;;;;;;;2.16;75.29;100457.30;24515;1351;3052103;-74
2021/11/15 03:59:11;;;;;;;77.10;34.60;;;;;;;2.68;74.29;100457.91;24580;1356;3027402;-77
2021/11/15 04:01:43;;;;;;;75.50;33.60;;;;;;;3.41;71.91;100456.59;24545;1351;3049054;-71
2021/11/15 04:04:17;;;;;;;88.30;40.00;;;;;;;3.50;70.92;100460.08;24525;1351;3026998;-76
2021/11/15 04:06:51;;;;;;;84.10;35.80;;;;;;;3.44;70.84;100466.40;24525;1357;3049685;-73
2021/11/15 04:09:20;;;;;;;99.80;42.00;;;;;;;3.28;71.04;100473.56;24543;1351;3068260;-74
2021/11/15 04:11:49;;;;;;;87.10;38.70;;;;;;;3.06;71.19;100470.08;24544;1351;3026444;-76
2021/11/15 04:14:18;;;;;;;91.60;42.90;;;;;;;2.81;71.95;100469.52;24526;1352;3049932;-70
2021/11/15 04:16:47;;;;;;;92.70;42.00;;;;;;;2.53;72.74;100463.98;24524;1351;3026645;-72
2021/11/15 04:19:17;;;;;;;86.20;42.60;;;;;;;2.20;74.19;100475.92;24590;1351;3052702;-73
2021/11/15 04:21:46;;;;;;;89.50;43.20;;;;;;;1.93;75.35;100486.03;24562;1355;3030077;-76
2021/11/15 04:24:15;;;;;;;81.40;30.50;;;;;;;1.76;75.75;100493.08;24542;1352;3026286;-69
2021/11/15 04:26:43;;;;;;;75.80;34.00;;;;;;;2.12;75.08;100495.02;24555;1351;3052106;-70
2021/11/15 04:29:12;;;;;;;79.80;35.40;;;;;;;2.51;73.83;100494.11;24551;1351;3026862;-74
2021/11/15 04:31:42;;;;;;;81.70;36.80;;;;;;;2.42;73.49;100490.91;24559;1354;3051124;-70
2021/11/15 04:34:11;;;;;;;84.40;37.70;;;;;;;2.28;73.84;100492.26;24553;1351;3026513;-73
2021/11/15 04:36:40;;;;;;;83.50;37.70;;;;;;;1.96;74.92;100498.27;24535;1350;3026912;-70
2021/11/15 04:39:09;;;;;;;90.50;39.80;;;;;;;1.74;75.57;100509.69;24507;1351;3027262;-66
2021/11/15 04:41:38;;;;;;;76.00;37.40;;;;;;;1.57;76.30;100508.08;24530;1351;3055376;-71
2021/11/15 04:44:07;;;;;;;86.50;37.40;;;;;;;1.24;77.76;100509.33;24571;1354;3026597;-70
2021/11/15 04:46:36;;;;;;;70.40;29.30;;;;;;;1.08;78.38;100514.75;24580;1351;3026757;-69
2021/11/15 04:49:05;;;;;;;61.90;29.50;;;;;;;1.50;78.05;100522.29;24607;1355;3052227;-65
2021/11/15 04:51:34;;;;;;;64.50;31.80;;;;;;;1.86;76.14;100510.98;24565;1348;3026725;-70
2021/11/15 04:54:03;;;;;;;77.40;31.40;;;;;;;1.78;76.03;100517.42;24543;1355;3050256;-68
2021/11/15 04:56:33;;;;;;;68.80;31.50;;;;;;;1.60;76.38;100517.38;24545;1351;3027303;-68
2021/11/15 04:59:01;;;;;;;74.20;33.10;;;;;;;1.36;76.83;100514.08;24549;1354;3026880;-70
2021/11/15 05:01:30;;;;;;;68.70;29.70;;;;;;;1.17;77.91;100515.23;24718;1351;3026093;-66
2021/11/15 05:04:02;;;;;;;64.30;31.20;;;;;;;1.01;78.47;100519.11;24597;1354;3055166;-72
2021/11/15 05:06:31;;;;;;;70.20;31.90;;;;;;;0.86;79.01;100520.20;24552;1356;3026654;-70
2021/11/15 05:09:01;;;;;;;49.20;21.60;;;;;;;0.81;79.30;100516.77;24598;1357;3026389;-70
2021/11/15 05:11:29;;;;;;;61.50;26.90;;;;;;;1.32;78.52;100520.66;24592;1355;3051825;-69
2021/11/15 05:13:59;;;;;;;63.50;28.60;;;;;;;1.76;76.14;100517.44;24589;1351;3026709;-67
2021/11/15 05:16:28;;;;;;;66.40;27.40;;;;;;;1.85;75.35;100516.69;24718;1350;3027393;-67
2021/11/15 05:18:58;;;;;;;51.10;23.90;;;;;;;1.78;75.32;100518.30;24570;1351;3026568;-70
2021/11/15 05:21:27;;;;;;;58.10;28.50;;;;;;;1.60;75.66;100523.60;24555;1357;3050122;-72
2021/11/15 05:23:56;;;;;;;57.20;26.80;;;;;;;1.49;76.18;100527.14;24501;1351;3026646;-67
2021/11/15 05:26:25;;;;;;;62.20;28.60;;;;;;;1.24;76.79;100530.02;24568;1357;3026491;-70
2021/11/15 05:28:54;;;;;;;56.40;27.10;;;;;;;1.22;76.88;100538.33;24584;1351;3052412;-70
2021/11/15 05:31:24;;;;;;;67.80;30.80;;;;;;;1.13;76.71;100544.58;24592;1351;3026566;-73
2021/11/15 05:33:53;;;;;;;51.50;22.70;;;;;;;0.97;77.68;100543.63;24550;1351;3055381;-72
2021/11/15 05:36:22;;;;;;;53.40;24.50;;;;;;;1.39;76.72;100546.34;24520;1355;3027553;-74
2021/11/15 05:38:51;;;;;;;55.20;26.70;;;;;;;1.88;75.15;100537.39;24578;1351;3049409;-71
2021/11/15 05:41:20;;;;;;;56.80;26.50;;;;;;;1.88;74.90;100545.52;24603;1351;3026433;-72
2021/11/15 05:43:49;;;;;;;59.40;27.00;;;;;;;1.74;74.92;100549.23;24589;1351;3059048;-67
2021/11/15 05:46:18;;;;;;;65.30;29.40;;;;;;;1.62;75.39;100548.10;24614;1351;3026815;-68
2021/11/15 05:48:47;;;;;;;64.50;30.60;;;;;;;1.41;76.12;100547.02;24744;1355;3050884;-72
2021/11/15 05:51:16;;;;;;;71.70;31.30;;;;;;;1.32;76.54;100545.36;24593;1351;3030558;-68
2021/11/15 05:53:46;;;;;;;83.70;34.40;;;;;;;1.12;77.40;100555.29;24772;1352;3054495;-67
2021/11/15 05:56:16;;;;;;;53.20;23.50;;;;;;;1.08;78.09;100553.59;24809;1356;3026853;-69
2021/11/15 05:58:46;;;;;;;66.70;25.00;;;;;;;1.50;77.14;100562.69;24776;1342;3029231;-67
2021/11/15 06:01:15;;;;;;;54.10;23.00;;;;;;;2.14;74.88;100553.25;24869;1351;3026225;-73
2021/11/15 06:03:44;;;;;;;66.20;28.70;;;;;;;2.21;73.97;100556.30;24873;1355;3051722;-67
2021/11/15 06:06:13;;;;;;;60.40;25.90;;;;;;;2.10;74.48;100559.84;24871;1352;3026840;-70
2021/11/15 06:08:42;;;;;;;62.00;25.40;;;;;;;1.90;75.00;100568.30;24743;1355;3026742;-71
2021/11/15 06:11:10;;;;;;;68.70;29.10;;;;;;;1.87;75.23;100570.41;24870;1351;3050731;-64
2021/11/15 06:13:40;;;;;;;55.50;27.20;;;;;;;1.77;76.04;100572.02;24832;1355;3027271;-67
2021/11/15 06:16:09;;;;;;;68.50;30.80;;;;;;;1.74;76.53;100582.23;24828;1352;3026286;-64
2021/11/15 06:18:38;;;;;;;50.10;22.80;;;;;;;1.84;76.30;100580.61;24947;1351;3053642;-66
2021/11/15 06:21:08;;;;;;;57.70;23.60;;;;;;;2.40;74.74;100578.24;24892;1354;3026436;-64
2021/11/15 06:23:36;;;;;;;61.60;24.90;;;;;;;2.92;72.81;100573.05;24876;1351;3027061;-76
2021/11/15 06:26:05;;;;;;;63.10;27.40;;;;;;;3.11;72.01;100570.77;24537;1351;3051865;-71
2021/11/15 06:28:34;;;;;;;63.20;26.70;;;;;;;3.14;71.45;100569.33;24590;1354;3026056;-72
2021/11/15 06:31:08;;;;;;;70.60;31.10;;;;;;;2.82;72.46;100575.25;24531;1350;3050819;-75
2021/11/15 06:33:39;;;;;;;72.30;33.90;;;;;;;2.71;73.04;100583.67;24552;1354;3054255;-75
2021/11/15 06:36:08;;;;;;;61.20;27.00;;;;;;;2.82;72.80;100583.02;24574;1349;3026516;-68
2021/11/15 06:38:39;;;;;;;63.20;31.10;;;;;;;2.77;72.77;100583.08;24531;1354;3051544;-68
2021/11/15 06:41:08;;;;;;;62.10;29.20;;;;;;;2.70;73.02;100583.17;24604;1348;3026293;-73
2021/11/15 06:43:36;;;;;;;62.00;28.30;;;;;;;2.55;73.18;100585.04;24617;1351;3049886;-70
2021/11/15 06:46:05;;;;;;;43.50;20.50;;;;;;;2.62;73.11;100587.40;24647;1352;3026661;-65
2021/11/15 06:48:41;;;;;;;51.20;24.00;;;;;;;3.26;71.88;100583.38;24538;1351;3070433;-69
2021/11/15 06:51:10;;;;;;;54.60;24.00;;;;;;;3.87;69.21;100583.91;24527;1351;3048860;-72
2021/11/15 06:53:40;;;;;;;58.70;24.50;;;;;;;4.02;68.51;100587.34;24525;1351;3029135;-73
2021/11/15 06:56:09;;;;;;;58.10;25.00;;;;;;;4.06;68.32;100593.70;24755;1351;3026927;-67
2021/11/15 06:58:39;;;;;;;63.40;26.10;;;;;;;3.99;68.09;100591.54;24595;1351;3028951;-71
2021/11/15 07:01:08;;;;;;;63.60;26.30;;;;;;;3.89;68.57;100596.02;24535;1355;3028526;-73
2021/11/15 07:03:37;;;;;;;67.80;27.00;;;;;;;3.81;68.88;100599.10;24562;1351;3051203;-73
2021/11/15 07:06:06;;;;;;;70.60;28.00;;;;;;;3.81;68.80;100601.70;24562;1351;3026097;-70
2021/11/15 07:08:35;;;;;;;59.60;28.10;;;;;;;3.74;68.95;100606.63;24558;1351;3054647;-69
2021/11/15 07:11:04;;;;;;;58.90;28.00;;;;;;;3.73;68.97;100612.55;24578;1351;3029226;-69
2021/11/15 07:13:33;;;;;;;59.90;28.80;;;;;;;3.73;69.01;100616.71;24512;1351;3051464;-70
2021/11/15 07:16:03;;;;;;;63.40;31.10;;;;;;;3.65;69.54;100613.01;24542;1351;3026495;-67
2021/11/15 07:18:33;;;;;;;75.50;31.30;;;;;;;3.65;69.60;100616.65;24521;1351;3072149;-74
2021/11/15 07:21:02;;;;;;;82.60;33.80;;;;;;;3.69;69.66;100619.70;24542;1357;3026885;-66
2021/11/15 07:23:31;;;;;;;64.90;30.90;;;;;;;3.70;69.33;100619.36;24537;1350;3029458;-71
2021/11/15 07:26:00;;;;;;;65.60;30.90;;;;;;;3.84;68.82;100622.45;24548;1351;3026850;-67
2021/11/15 07:28:29;;;;;;;68.40;31.10;;;;;;;3.97;68.23;100615.16;24531;1354;3052142;-69
2021/11/15 07:30:58;;;;;;;68.00;28.60;;;;;;;4.03;67.83;100619.58;24518;1351;3026594;-69
2021/11/15 07:33:27;;;;;;;63.70;24.00;;;;;;;4.04;68.23;100623.91;24536;1351;3067949;-72
2021/11/15 07:35:56;;;;;;;58.90;26.30;;;;;;;4.48;67.43;100631.16;24526;1351;3027068;-72
2021/11/15 07:38:25;;;;;;;69.60;28.60;;;;;;;5.12;65.29;100626.36;24572;1351;3050273;-73
2021/11/15 07:40:54;;;;;;;64.40;26.80;;;;;;;5.36;64.49;100627.77;24508;1357;3028125;-71
2021/11/15 07:43:23;;;;;;;65.10;28.90;;;;;;;5.34;64.40;100631.84;24551;1351;3052521;-76
2021/11/15 07:45:52;;;;;;;54.10;25.50;;;;;;;5.17;64.31;100638.09;24551;1351;3026379;-74
2021/11/15 07:48:21;;;;;;;60.50;27.80;;;;;;;5.05;64.59;100640.20;24559;1354;3026558;-71
2021/11/15 07:50:50;;;;;;;59.50;25.70;;;;;;;4.98;64.89;100638.27;24562;1351;3053586;-67
2021/11/15 07:53:19;;;;;;;56.50;25.10;;;;;;;4.88;65.00;100641.75;24577;1351;3026716;-68
2021/11/15 07:55:48;;;;;;;57.50;25.60;;;;;;;4.80;65.30;100641.71;24522;1351;3052143;-68
2021/11/15 07:58:17;;;;;;;53.10;24.70;;;;;;;4.77;65.21;100647.66;24572;1351;3027631;-71
2021/11/15 08:00:46;;;;;;;61.30;25.80;;;;;;;4.74;65.28;100648.95;24511;1358;3057653;-72
2021/11/15 08:03:15;;;;;;;56.60;24.30;;;;;;;4.69;65.56;100648.00;24550;1351;3029194;-75
2021/11/15 08:05:45;;;;;;;55.70;23.10;;;;;;;4.80;65.22;100654.03;24537;1355;3054651;-74
2021/11/15 08:08:14;;;;;;;51.40;23.70;;;;;;;4.90;64.97;100657.70;24586;1351;3026916;-66
2021/11/15 08:10:43;;;;;;;52.30;21.40;;;;;;;4.92;64.99;100658.18;24577;1351;3050172;-74
2021/11/15 08:13:12;;;;;;;54.90;21.20;;;;;;;4.88;64.90;100658.06;24448;1357;3026436;-70
2021/11/15 08:15:41;;;;;;;64.00;23.80;;;;;;;4.85;65.07;100659.67;24538;1351;3048852;-74
2021/11/15 08:18:10;;;;;;;58.10;24.40;;;;;;;4.83;65.15;100659.89;24585;1354;3027853;-75
2021/11/15 08:20:39;;;;;;;51.40;22.20;;;;;;;4.82;65.27;100655.92;24571;1356;3067989;-66
2021/11/15 08:23:13;;;;;;;41.50;20.10;;;;;;;4.94;65.03;100661.61;24574;1357;3026683;-73
2021/11/15 08:25:57;;;;;;;48.30;23.30;;;;;;;5.00;64.66;100668.44;24665;1351;3027074;-68
2021/11/15 08:28:27;;;;;;;60.00;25.10;;;;;;;4.98;64.64;100659.45;24641;1351;3051433;-71
2021/11/15 08:30:57;;;;;;;52.30;23.20;;;;;;;5.04;64.84;100660.04;24581;1353;3026259;-74
2021/11/15 08:33:28;;;;;;;48.50;21.80;;;;;;;5.12;64.41;100660.23;24547;1351;3027315;-77
2021/11/15 08:35:58;;;;;;;48.10;21.70;;;;;;;5.20;64.41;100662.16;24557;1358;3027668;-71
2021/11/15 08:38:38;;;;;;;44.80;20.30;;;;;;;5.35;64.07;100661.17;24535;1350;3027129;-72
2021/11/15 08:41:07;;;;;;;53.00;22.70;;;;;;;5.42;63.68;100660.16;24580;1352;3069714;-71
2021/11/15 08:43:37;;;;;;;46.80;20.00;;;;;;;5.44;63.62;100658.04;24551;1355;3026127;-67
2021/11/15 08:46:07;;;;;;;44.20;22.50;;;;;;;5.49;63.35;100654.98;24571;1356;3028637;-70
2021/11/15 08:48:36;;;;;;;48.70;21.90;;;;;;;5.43;63.67;100654.59;24515;1351;3070902;-68
2021/11/15 08:51:07;;;;;;;50.80;22.10;;;;;;;5.47;63.71;100649.97;24552;1355;3026911;-72
2021/11/15 08:53:37;;;;;;;49.50;23.20;;;;;;;5.61;63.31;100646.91;24538;1351;3053141;-73
2021/11/15 08:56:06;;;;;;;53.00;23.10;;;;;;;5.73;62.95;100649.95;24525;1351;3026360;-71
2021/11/15 08:58:35;;;;;;;55.00;23.40;;;;;;;5.79;62.85;100645.84;24563;1351;3027420;-71
2021/11/15 09:01:06;;;;;;;51.40;22.80;;;;;;;5.87;62.70;100645.83;24562;1356;3050338;-63
2021/11/15 09:03:37;;;;;;;50.70;22.50;;;;;;;5.97;62.37;100653.62;24565;1358;3026855;-67
2021/11/15 09:06:07;;;;;;;46.10;23.00;;;;;;;6.07;61.86;100656.90;24584;1351;3026107;-69
2021/11/15 09:08:37;;;;;;;51.00;24.30;;;;;;;6.08;61.98;100657.73;24541;1351;3026658;-70
2021/11/15 09:11:06;;;;;;;44.60;21.60;;;;;;;6.12;61.91;100658.52;24559;1351;3028460;-69
2021/11/15 09:13:35;;;;;;;52.30;23.00;;;;;;;6.23;61.57;100658.95;24557;1358;3026835;-70
2021/11/15 09:16:05;;;;;;;47.30;22.20;;;;;;;6.32;61.26;100662.77;24534;1353;3053301;-74
2021/11/15 09:18:35;;;;;;;52.40;23.20;;;;;;;6.36;61.19;100663.35;24554;1351;3026202;-72
2021/11/15 09:21:07;;;;;;;47.20;21.60;;;;;;;6.34;61.10;100660.26;24512;1351;3026651;-73
2021/11/15 09:23:39;;;;;;;50.20;22.20;;;;;;;6.32;61.05;100658.91;24571;1352;3026692;-73
2021/11/15 09:26:09;;;;;;;48.60;22.30;;;;;;;6.45;60.79;100661.39;24530;1351;3026184;-70
2021/11/15 09:28:38;;;;;;;47.60;22.90;;;;;;;6.56;60.28;100659.89;24508;1348;3026382;-73
2021/11/15 09:31:07;;;;;;;41.70;20.40;;;;;;;6.64;60.11;100662.48;24544;1354;3028870;-69
2021/11/15 09:33:37;;;;;;;45.80;20.80;;;;;;;6.76;59.64;100661.66;24550;1357;3054936;-66
2021/11/15 09:36:06;;;;;;;38.90;19.80;;;;;;;6.84;59.48;100658.83;24519;1351;3026718;-75
2021/11/15 09:38:36;;;;;;;40.30;20.00;;;;;;;6.89;58.72;100654.36;24508;1357;3026146;-69
2021/11/15 09:41:07;;;;;;;44.50;19.70;;;;;;;6.86;59.06;100652.86;24561;1352;3055433;-66
2021/11/15 09:43:37;;;;;;;39.40;18.20;;;;;;;6.82;59.00;100648.46;24279;1351;3026587;-73
2021/11/15 09:46:09;;;;;;;41.10;19.80;;;;;;;6.88;58.88;100649.67;24504;1355;3026741;-70
2021/11/15 09:48:40;;;;;;;52.30;19.80;;;;;;;6.90;58.78;100648.05;24566;1358;3026969;-64
2021/11/15 09:51:09;;;;;;;48.90;20.60;;;;;;;6.96;58.65;100641.80;24573;1351;3027138;-67
2021/11/15 09:53:39;;;;;;;41.90;18.30;;;;;;;6.92;58.73;100639.46;24547;1357;3026459;-71
2021/11/15 09:56:10;;;;;;;52.80;19.90;;;;;;;7.05;58.06;100635.13;24524;1358;3027051;-71
2021/11/15 09:58:39;;;;;;;46.60;17.70;;;;;;;7.01;57.54;100634.69;24584;1358;3051993;-67
2021/11/15 10:01:08;;;;;;;39.00;18.10;;;;;;;7.02;57.78;100640.25;24598;1351;3027271;-72
2021/11/15 10:03:38;;;;;;;38.30;16.80;;;;;;;7.13;57.57;100632.99;24532;1351;3026718;-72
2021/11/15 10:06:07;;;;;;;29.70;16.10;;;;;;;7.01;57.29;100631.38;24560;1351;3028170;-78
2021/11/15 10:08:43;;;;;;;35.60;16.00;;;;;;;7.12;57.04;100631.44;24577;1351;3052903;-73
2021/11/15 10:11:13;;;;;;;35.40;15.70;;;;;;;7.24;56.78;100624.64;24528;1359;3057678;-74
2021/11/15 10:13:42;;;;;;;33.30;15.60;;;;;;;7.39;56.07;100626.13;24532;1351;3026076;-71
2021/11/15 10:16:22;;;;;;;32.80;14.60;;;;;;;7.48;55.46;100631.11;24519;1351;3055163;-71
2021/11/15 10:18:57;;;;;;;27.80;13.20;;;;;;;7.62;55.38;100632.63;24583;1351;3056842;-66
2021/11/15 10:21:31;;;;;;;28.90;13.50;;;;;;;7.65;54.56;100635.52;24569;1351;3050411;-73
2021/11/15 10:24:07;;;;;;;26.20;14.00;;;;;;;7.69;54.67;100638.35;24579;1351;3056009;-76
2021/11/15 10:26:50;;;;;;;29.20;14.40;;;;;;;7.64;54.61;100646.86;24581;1356;3051389;-73
2021/11/15 10:29:27;;;;;;;26.90;12.70;;;;;;;7.59;54.75;100647.90;24582;1353;3068312;-66
2021/11/15 10:32:02;;;;;;;24.10;12.30;;;;;;;7.71;54.62;100647.16;24550;1359;3053449;-75
2021/11/15 10:34:37;;;;;;;22.60;11.50;;;;;;;7.81;53.75;100643.56;24522;1354;3051876;-69
2021/11/15 10:37:16;;;;;;;24.30;13.20;;;;;;;7.86;53.15;100649.52;24568;1357;3055256;-68
2021/11/15 10:39:52;;;;;;;25.60;12.70;;;;;;;7.47;53.26;100652.73;24593;1355;3059095;-75
2021/11/15 10:42:23;;;;;;;23.70;11.90;;;;;;;7.45;53.66;100662.42;24542;1351;3049077;-68
2021/11/15 10:45:05;;;;;;;27.50;12.10;;;;;;;7.71;53.17;100659.56;24540;1351;3026318;-68
2021/11/15 10:47:40;;;;;;;24.40;12.20;;;;;;;7.85;52.73;100658.28;24558;1358;3054142;-74
2021/11/15 10:50:23;;;;;;;23.60;12.00;;;;;;;7.86;52.50;100657.19;24533;1355;3069061;-73
2021/11/15 10:52:57;;;;;;;27.70;11.60;;;;;;;8.06;52.53;100655.73;24573;1352;3052593;-67
2021/11/15 10:55:29;;;;;;;25.70;12.30;;;;;;;8.14;52.16;100658.09;24579;1351;3052821;-75
2021/11/15 10:57:59;;;;;;;21.50;11.40;;;;;;;8.15;52.19;100660.31;24603;1351;3026209;-70
2021/11/15 11:00:38;;;;;;;28.60;12.10;;;;;;;8.23;52.01;100662.34;24565;1352;3026534;-75
2021/11/15 11:03:08;;;;;;;22.70;12.00;;;;;;;8.12;51.97;100665.64;24620;1351;3050305;-69
2021/11/15 11:05:39;;;;;;;23.60;12.50;;;;;;;7.79;52.87;100661.05;24589;1352;3026598;-70
2021/11/15 11:08:28;;;;;;;27.40;12.70;;;;;;;7.83;53.08;100660.75;24537;1354;3026866;-73
2021/11/15 11:11:21;;;;;;;19.20;11.20;;;;;;;7.90;52.64;100657.05;24710;1357;3071748;-73
2021/11/15 11:14:01;;;;;;;23.70;12.30;;;;;;;7.53;53.41;100658.86;24616;1357;3051601;-66
2021/11/15 11:16:40;;;;;;;26.60;13.50;;;;;;;7.48;53.79;100660.41;24574;1357;3026245;-71